sensor_id;sensor_type;location;lat;lon;timestamp;P1;durP1;ratioP1;P2;durP2;ratioP2
52962;SDS011;38827;53.024;6.596;2023-09-08T00:05:22;7.57;;;5.65;;
52962;SDS011;38827;53.024;6.596;2023-09-08T00:07:55;7.38;;;5.35;;
52962;SDS011;38827;53.024;6.596;2023-09-08T00:10:30;6.03;;;5.43;;
52962;SDS011;38827;53.024;6.596;2023-09-08T00:12:59;5.90;;;5.28;;
52962;SDS011;38827;53.024;6.596;2023-09-08T00:15:24;7.67;;;5.13;;
52962;SDS011;38827;53.024;6.596;2023-09-08T00:18:13;7.35;;;5.40;;
52962;SDS011;38827;53.024;6.596;2023-09-08T00:20:45;8.52;;;6.00;;
52962;SDS011;38827;53.024;6.596;2023-09-08T00:23:10;6.35;;;5.05;;
52962;SDS011;38827;53.024;6.596;2023-09-08T00:25:52;6.93;;;5.30;;
52962;SDS011;38827;53.024;6.596;2023-09-08T00:28:23;9.23;;;5.15;;
52962;SDS011;38827;53.024;6.596;2023-09-08T00:30:52;5.68;;;5.13;;
52962;SDS011;38827;53.024;6.596;2023-09-08T00:33:21;5.85;;;4.95;;
52962;SDS011;38827;53.024;6.596;2023-09-08T00:35:53;7.15;;;5.35;;
52962;SDS011;38827;53.024;6.596;2023-09-08T00:38:37;7.90;;;5.78;;
52962;SDS011;38827;53.024;6.596;2023-09-08T00:44:58;10.98;;;6.82;;
52962;SDS011;38827;53.024;6.596;2023-09-08T00:54:59;7.38;;;6.22;;
52962;SDS011;38827;53.024;6.596;2023-09-08T00:57:31;6.43;;;5.10;;
52962;SDS011;38827;53.024;6.596;2023-09-08T00:59:57;9.07;;;6.70;;
52962;SDS011;38827;53.024;6.596;2023-09-08T01:02:32;7.10;;;6.40;;
52962;SDS011;38827;53.024;6.596;2023-09-08T01:05:09;8.07;;;6.95;;
52962;SDS011;38827;53.024;6.596;2023-09-08T01:41:07;14.95;;;11.07;;
52962;SDS011;38827;53.024;6.596;2023-09-08T01:46:53;15.73;;;12.00;;
52962;SDS011;38827;53.024;6.596;2023-09-08T01:52:34;15.00;;;11.98;;
52962;SDS011;38827;53.024;6.596;2023-09-08T01:55:14;14.73;;;11.07;;
52962;SDS011;38827;53.024;6.596;2023-09-08T01:57:51;11.68;;;10.50;;
52962;SDS011;38827;53.024;6.596;2023-09-08T02:00:16;11.75;;;9.93;;
52962;SDS011;38827;53.024;6.596;2023-09-08T02:02:42;12.95;;;10.45;;
52962;SDS011;38827;53.024;6.596;2023-09-08T02:05:26;14.38;;;10.77;;
52962;SDS011;38827;53.024;6.596;2023-09-08T02:14:36;17.00;;;10.20;;
52962;SDS011;38827;53.024;6.596;2023-09-08T02:19:51;12.70;;;10.38;;
52962;SDS011;38827;53.024;6.596;2023-09-08T02:22:27;11.30;;;10.10;;
52962;SDS011;38827;53.024;6.596;2023-09-08T02:30:10;13.07;;;9.57;;
52962;SDS011;38827;53.024;6.596;2023-09-08T02:32:36;10.85;;;9.15;;
52962;SDS011;38827;53.024;6.596;2023-09-08T02:35:02;12.82;;;10.52;;
52962;SDS011;38827;53.024;6.596;2023-09-08T02:37:30;13.95;;;10.45;;
52962;SDS011;38827;53.024;6.596;2023-09-08T02:39:55;12.10;;;10.32;;
52962;SDS011;38827;53.024;6.596;2023-09-08T02:42:21;12.90;;;11.30;;
52962;SDS011;38827;53.024;6.596;2023-09-08T02:48:38;13.75;;;10.77;;
52962;SDS011;38827;53.024;6.596;2023-09-08T02:58:49;12.38;;;9.65;;
52962;SDS011;38827;53.024;6.596;2023-09-08T03:01:21;10.85;;;9.75;;
52962;SDS011;38827;53.024;6.596;2023-09-08T03:03:47;9.60;;;6.25;;
52962;SDS011;38827;53.024;6.596;2023-09-08T03:12:27;11.18;;;9.85;;
52962;SDS011;38827;53.024;6.596;2023-09-08T03:18:23;13.88;;;10.63;;
52962;SDS011;38827;53.024;6.596;2023-09-08T03:20:53;13.05;;;11.07;;
52962;SDS011;38827;53.024;6.596;2023-09-08T03:23:28;13.35;;;10.23;;
52962;SDS011;38827;53.024;6.596;2023-09-08T03:26:03;16.70;;;11.52;;
52962;SDS011;38827;53.024;6.596;2023-09-08T03:28:29;15.40;;;11.60;;
52962;SDS011;38827;53.024;6.596;2023-09-08T03:31:14;10.05;;;8.45;;
52962;SDS011;38827;53.024;6.596;2023-09-08T03:37:50;9.90;;;8.85;;
52962;SDS011;38827;53.024;6.596;2023-09-08T03:40:16;8.43;;;7.05;;
52962;SDS011;38827;53.024;6.596;2023-09-08T03:42:44;10.50;;;9.00;;
52962;SDS011;38827;53.024;6.596;2023-09-08T03:45:22;9.05;;;8.07;;
52962;SDS011;38827;53.024;6.596;2023-09-08T03:58:40;6.20;;;5.60;;
52962;SDS011;38827;53.024;6.596;2023-09-08T04:01:06;9.70;;;8.77;;
52962;SDS011;38827;53.024;6.596;2023-09-08T04:03:50;13.32;;;10.27;;
52962;SDS011;38827;53.024;6.596;2023-09-08T04:06:16;11.13;;;9.65;;
52962;SDS011;38827;53.024;6.596;2023-09-08T04:08:42;11.20;;;9.65;;
52962;SDS011;38827;53.024;6.596;2023-09-08T04:11:08;10.32;;;8.13;;
52962;SDS011;38827;53.024;6.596;2023-09-08T04:20:17;8.82;;;5.75;;
52962;SDS011;38827;53.024;6.596;2023-09-08T04:22:52;6.03;;;5.43;;
52962;SDS011;38827;53.024;6.596;2023-09-08T04:25:18;8.57;;;7.00;;
52962;SDS011;38827;53.024;6.596;2023-09-08T04:27:44;11.43;;;8.70;;
52962;SDS011;38827;53.024;6.596;2023-09-08T04:32:42;8.75;;;7.20;;
52962;SDS011;38827;53.024;6.596;2023-09-08T04:35:18;7.32;;;5.93;;
52962;SDS011;38827;53.024;6.596;2023-09-08T04:37:47;8.75;;;7.85;;
52962;SDS011;38827;53.024;6.596;2023-09-08T04:40:13;10.70;;;8.80;;
52962;SDS011;38827;53.024;6.596;2023-09-08T04:42:42;10.52;;;8.05;;
52962;SDS011;38827;53.024;6.596;2023-09-08T04:48:46;9.02;;;8.07;;
52962;SDS011;38827;53.024;6.596;2023-09-08T04:54:28;14.07;;;9.90;;
52962;SDS011;38827;53.024;6.596;2023-09-08T05:10:49;7.65;;;6.20;;
52962;SDS011;38827;53.024;6.596;2023-09-08T05:13:49;7.25;;;5.93;;
52962;SDS011;38827;53.024;6.596;2023-09-08T05:16:18;7.13;;;5.88;;
52962;SDS011;38827;53.024;6.596;2023-09-08T05:19:07;8.00;;;5.70;;
52962;SDS011;38827;53.024;6.596;2023-09-08T05:21:42;9.15;;;8.23;;
52962;SDS011;38827;53.024;6.596;2023-09-08T05:24:45;8.95;;;7.18;;
52962;SDS011;38827;53.024;6.596;2023-09-08T05:27:29;8.85;;;7.10;;
52962;SDS011;38827;53.024;6.596;2023-09-08T05:30:10;7.32;;;5.60;;
52962;SDS011;38827;53.024;6.596;2023-09-08T05:32:42;8.57;;;6.63;;
52962;SDS011;38827;53.024;6.596;2023-09-08T05:41:54;11.23;;;6.70;;
52962;SDS011;38827;53.024;6.596;2023-09-08T05:44:47;9.25;;;7.72;;
52962;SDS011;38827;53.024;6.596;2023-09-08T05:49:49;9.15;;;6.45;;
52962;SDS011;38827;53.024;6.596;2023-09-08T05:52:27;7.32;;;5.95;;
52962;SDS011;38827;53.024;6.596;2023-09-08T05:55:10;7.45;;;6.53;;
52962;SDS011;38827;53.024;6.596;2023-09-08T06:00:24;9.15;;;7.60;;
52962;SDS011;38827;53.024;6.596;2023-09-08T06:03:04;8.50;;;7.65;;
52962;SDS011;38827;53.024;6.596;2023-09-08T06:05:48;13.90;;;8.40;;
52962;SDS011;38827;53.024;6.596;2023-09-08T06:08:22;14.13;;;6.05;;
52962;SDS011;38827;53.024;6.596;2023-09-08T06:24:40;6.53;;;4.72;;
52962;SDS011;38827;53.024;6.596;2023-09-08T06:27:25;8.38;;;5.38;;
52962;SDS011;38827;53.024;6.596;2023-09-08T06:30:02;5.40;;;4.90;;
52962;SDS011;38827;53.024;6.596;2023-09-08T06:32:28;6.07;;;4.82;;
52962;SDS011;38827;53.024;6.596;2023-09-08T06:34:54;6.10;;;4.97;;
52962;SDS011;38827;53.024;6.596;2023-09-08T06:37:21;6.40;;;5.40;;
52962;SDS011;38827;53.024;6.596;2023-09-08T06:39:51;6.93;;;4.55;;
52962;SDS011;38827;53.024;6.596;2023-09-08T06:42:21;10.52;;;7.80;;
52962;SDS011;38827;53.024;6.596;2023-09-08T06:44:46;5.67;;;4.70;;
52962;SDS011;38827;53.024;6.596;2023-09-08T06:47:12;9.47;;;7.73;;
52962;SDS011;38827;53.024;6.596;2023-09-08T06:49:39;6.50;;;5.85;;
52962;SDS011;38827;53.024;6.596;2023-09-08T06:52:06;6.72;;;4.82;;
52962;SDS011;38827;53.024;6.596;2023-09-08T06:54:32;7.53;;;6.75;;
52962;SDS011;38827;53.024;6.596;2023-09-08T06:56:59;7.43;;;5.07;;
52962;SDS011;38827;53.024;6.596;2023-09-08T06:59:27;5.75;;;5.00;;
52962;SDS011;38827;53.024;6.596;2023-09-08T07:01:56;6.47;;;5.70;;
52962;SDS011;38827;53.024;6.596;2023-09-08T07:04:22;7.13;;;6.17;;
52962;SDS011;38827;53.024;6.596;2023-09-08T07:06:47;7.63;;;6.83;;
52962;SDS011;38827;53.024;6.596;2023-09-08T07:09:23;7.53;;;5.10;;
52962;SDS011;38827;53.024;6.596;2023-09-08T07:14:24;12.35;;;5.28;;
52962;SDS011;38827;53.024;6.596;2023-09-08T07:16:51;10.45;;;6.28;;
52962;SDS011;38827;53.024;6.596;2023-09-08T07:19:17;10.47;;;5.83;;
52962;SDS011;38827;53.024;6.596;2023-09-08T07:29:12;6.38;;;5.78;;
52962;SDS011;38827;53.024;6.596;2023-09-08T07:31:45;10.23;;;4.88;;
52962;SDS011;38827;53.024;6.596;2023-09-08T07:34:11;7.18;;;6.03;;
52962;SDS011;38827;53.024;6.596;2023-09-08T07:36:37;6.90;;;5.85;;
52962;SDS011;38827;53.024;6.596;2023-09-08T07:39:09;8.27;;;5.70;;
52962;SDS011;38827;53.024;6.596;2023-09-08T07:41:49;8.52;;;5.53;;
52962;SDS011;38827;53.024;6.596;2023-09-08T07:44:24;9.32;;;4.65;;
52962;SDS011;38827;53.024;6.596;2023-09-08T07:52:40;6.65;;;4.68;;
52962;SDS011;38827;53.024;6.596;2023-09-08T07:55:35;10.10;;;5.00;;
52962;SDS011;38827;53.024;6.596;2023-09-08T07:58:19;4.45;;;4.05;;
52962;SDS011;38827;53.024;6.596;2023-09-08T08:00:47;7.10;;;5.00;;
52962;SDS011;38827;53.024;6.596;2023-09-08T08:03:22;5.45;;;4.05;;
52962;SDS011;38827;53.024;6.596;2023-09-08T08:05:48;6.28;;;4.35;;
52962;SDS011;38827;53.024;6.596;2023-09-08T08:08:16;5.57;;;4.30;;
52962;SDS011;38827;53.024;6.596;2023-09-08T08:10:42;7.82;;;4.05;;
52962;SDS011;38827;53.024;6.596;2023-09-08T08:13:23;6.75;;;3.95;;
52962;SDS011;38827;53.024;6.596;2023-09-08T08:18:44;5.18;;;3.83;;
52962;SDS011;38827;53.024;6.596;2023-09-08T08:21:10;4.82;;;3.70;;
52962;SDS011;38827;53.024;6.596;2023-09-08T08:23:47;4.60;;;3.60;;
52962;SDS011;38827;53.024;6.596;2023-09-08T08:26:16;5.05;;;4.07;;
52962;SDS011;38827;53.024;6.596;2023-09-08T08:32:44;6.43;;;3.90;;
52962;SDS011;38827;53.024;6.596;2023-09-08T08:42:16;3.75;;;3.30;;
52962;SDS011;38827;53.024;6.596;2023-09-08T08:44:41;3.58;;;3.03;;
52962;SDS011;38827;53.024;6.596;2023-09-08T08:47:09;8.32;;;3.75;;
52962;SDS011;38827;53.024;6.596;2023-09-08T08:49:41;6.38;;;3.70;;
52962;SDS011;38827;53.024;6.596;2023-09-08T08:52:20;5.65;;;3.50;;
52962;SDS011;38827;53.024;6.596;2023-09-08T08:55:05;8.27;;;3.42;;
52962;SDS011;38827;53.024;6.596;2023-09-08T08:57:50;4.55;;;3.15;;
52962;SDS011;38827;53.024;6.596;2023-09-08T09:00:25;5.82;;;3.25;;
52962;SDS011;38827;53.024;6.596;2023-09-08T09:05:40;3.80;;;3.40;;
52962;SDS011;38827;53.024;6.596;2023-09-08T09:08:06;3.85;;;3.20;;
52962;SDS011;38827;53.024;6.596;2023-09-08T09:10:44;5.90;;;3.55;;
52962;SDS011;38827;53.024;6.596;2023-09-08T09:17:27;4.82;;;3.28;;
52962;SDS011;38827;53.024;6.596;2023-09-08T09:26:26;4.28;;;3.05;;
52962;SDS011;38827;53.024;6.596;2023-09-08T09:32:24;5.18;;;2.97;;
52962;SDS011;38827;53.024;6.596;2023-09-08T09:37:31;4.93;;;3.28;;
52962;SDS011;38827;53.024;6.596;2023-09-08T09:40:03;4.05;;;3.00;;
52962;SDS011;38827;53.024;6.596;2023-09-08T09:50:29;3.80;;;3.20;;
52962;SDS011;38827;53.024;6.596;2023-09-08T09:53:24;4.32;;;3.35;;
52962;SDS011;38827;53.024;6.596;2023-09-08T09:55:52;3.40;;;2.80;;
52962;SDS011;38827;53.024;6.596;2023-09-08T10:02:12;5.28;;;3.35;;
52962;SDS011;38827;53.024;6.596;2023-09-08T10:04:42;6.97;;;3.90;;
52962;SDS011;38827;53.024;6.596;2023-09-08T10:07:26;4.40;;;3.25;;
52962;SDS011;38827;53.024;6.596;2023-09-08T10:09:53;5.47;;;3.60;;
52962;SDS011;38827;53.024;6.596;2023-09-08T10:12:18;5.35;;;3.20;;
52962;SDS011;38827;53.024;6.596;2023-09-08T10:14:44;7.20;;;3.38;;
52962;SDS011;38827;53.024;6.596;2023-09-08T10:17:15;6.70;;;3.03;;
52962;SDS011;38827;53.024;6.596;2023-09-08T10:19:45;3.83;;;2.72;;
52962;SDS011;38827;53.024;6.596;2023-09-08T10:22:16;6.32;;;3.22;;
52962;SDS011;38827;53.024;6.596;2023-09-08T10:24:46;5.88;;;3.50;;
52962;SDS011;38827;53.024;6.596;2023-09-08T10:27:13;3.30;;;3.00;;
52962;SDS011;38827;53.024;6.596;2023-09-08T10:29:40;4.68;;;3.20;;
52962;SDS011;38827;53.024;6.596;2023-09-08T10:32:06;5.35;;;3.20;;
52962;SDS011;38827;53.024;6.596;2023-09-08T10:34:34;5.70;;;3.00;;
52962;SDS011;38827;53.024;6.596;2023-09-08T10:37:01;6.78;;;3.25;;
52962;SDS011;38827;53.024;6.596;2023-09-08T10:39:35;4.65;;;3.08;;
52962;SDS011;38827;53.024;6.596;2023-09-08T10:44:59;3.35;;;2.90;;
52962;SDS011;38827;53.024;6.596;2023-09-08T10:47:33;4.10;;;3.08;;
52962;SDS011;38827;53.024;6.596;2023-09-08T10:50:06;3.72;;;3.20;;
52962;SDS011;38827;53.024;6.596;2023-09-08T10:52:34;3.95;;;3.03;;
52962;SDS011;38827;53.024;6.596;2023-09-08T10:55:00;3.80;;;3.08;;
52962;SDS011;38827;53.024;6.596;2023-09-08T10:57:27;5.25;;;3.00;;
52962;SDS011;38827;53.024;6.596;2023-09-08T10:59:56;3.45;;;3.15;;
52962;SDS011;38827;53.024;6.596;2023-09-08T11:02:35;3.47;;;3.13;;
52962;SDS011;38827;53.024;6.596;2023-09-08T11:05:09;5.30;;;3.17;;
52962;SDS011;38827;53.024;6.596;2023-09-08T11:07:36;3.50;;;2.97;;
52962;SDS011;38827;53.024;6.596;2023-09-08T11:10:03;4.57;;;2.80;;
52962;SDS011;38827;53.024;6.596;2023-09-08T11:12:30;4.07;;;2.95;;
52962;SDS011;38827;53.024;6.596;2023-09-08T11:14:57;3.05;;;2.72;;
52962;SDS011;38827;53.024;6.596;2023-09-08T11:17:30;6.53;;;2.95;;
52962;SDS011;38827;53.024;6.596;2023-09-08T11:19:57;5.00;;;2.70;;
52962;SDS011;38827;53.024;6.596;2023-09-08T11:26:19;3.95;;;2.80;;
52962;SDS011;38827;53.024;6.596;2023-09-08T11:29:23;5.78;;;3.00;;
52962;SDS011;38827;53.024;6.596;2023-09-08T11:32:12;4.05;;;2.80;;
52962;SDS011;38827;53.024;6.596;2023-09-08T11:35:00;5.95;;;2.78;;
52962;SDS011;38827;53.024;6.596;2023-09-08T11:37:49;3.25;;;2.90;;
52962;SDS011;38827;53.024;6.596;2023-09-08T11:40:47;7.53;;;3.45;;
52962;SDS011;38827;53.024;6.596;2023-09-08T11:43:22;3.83;;;3.05;;
52962;SDS011;38827;53.024;6.596;2023-09-08T11:49:18;4.93;;;2.70;;
52962;SDS011;38827;53.024;6.596;2023-09-08T11:51:51;5.03;;;2.90;;
52962;SDS011;38827;53.024;6.596;2023-09-08T11:54:17;3.10;;;2.58;;
52962;SDS011;38827;53.024;6.596;2023-09-08T11:56:43;5.35;;;2.88;;
52962;SDS011;38827;53.024;6.596;2023-09-08T11:59:10;3.35;;;2.67;;
52962;SDS011;38827;53.024;6.596;2023-09-08T12:01:38;5.82;;;2.83;;
52962;SDS011;38827;53.024;6.596;2023-09-08T12:04:04;4.40;;;2.75;;
52962;SDS011;38827;53.024;6.596;2023-09-08T12:06:29;3.95;;;2.80;;
52962;SDS011;38827;53.024;6.596;2023-09-08T12:08:56;3.20;;;2.75;;
52962;SDS011;38827;53.024;6.596;2023-09-08T12:11:34;4.03;;;2.55;;
52962;SDS011;38827;53.024;6.596;2023-09-08T12:14:08;3.72;;;2.78;;
52962;SDS011;38827;53.024;6.596;2023-09-08T12:16:35;6.82;;;2.78;;
52962;SDS011;38827;53.024;6.596;2023-09-08T12:19:01;2.85;;;2.65;;
52962;SDS011;38827;53.024;6.596;2023-09-08T12:21:27;3.63;;;2.85;;
52962;SDS011;38827;53.024;6.596;2023-09-08T12:24:15;6.22;;;2.88;;
52962;SDS011;38827;53.024;6.596;2023-09-08T12:26:45;3.35;;;2.58;;
52962;SDS011;38827;53.024;6.596;2023-09-08T12:29:14;3.40;;;2.78;;
52962;SDS011;38827;53.024;6.596;2023-09-08T12:31:39;5.05;;;2.90;;
52962;SDS011;38827;53.024;6.596;2023-09-08T12:34:08;2.97;;;2.67;;
52962;SDS011;38827;53.024;6.596;2023-09-08T12:36:34;3.28;;;2.88;;
52962;SDS011;38827;53.024;6.596;2023-09-08T12:39:07;8.65;;;2.78;;
52962;SDS011;38827;53.024;6.596;2023-09-08T12:41:33;4.30;;;2.95;;
52962;SDS011;38827;53.024;6.596;2023-09-08T12:44:05;4.35;;;2.45;;
52962;SDS011;38827;53.024;6.596;2023-09-08T12:46:36;4.10;;;2.90;;
52962;SDS011;38827;53.024;6.596;2023-09-08T12:49:01;3.97;;;2.83;;
52962;SDS011;38827;53.024;6.596;2023-09-08T12:57:49;4.85;;;2.60;;
52962;SDS011;38827;53.024;6.596;2023-09-08T13:00:19;3.00;;;2.70;;
52962;SDS011;38827;53.024;6.596;2023-09-08T13:02:47;3.20;;;2.83;;
52962;SDS011;38827;53.024;6.596;2023-09-08T13:05:13;5.90;;;2.85;;
52962;SDS011;38827;53.024;6.596;2023-09-08T13:07:39;4.70;;;2.90;;
52962;SDS011;38827;53.024;6.596;2023-09-08T13:10:05;2.85;;;2.63;;
52962;SDS011;38827;53.024;6.596;2023-09-08T13:12:31;3.97;;;2.72;;
52962;SDS011;38827;53.024;6.596;2023-09-08T13:22:44;3.90;;;3.00;;
52962;SDS011;38827;53.024;6.596;2023-09-08T13:25:16;5.10;;;2.97;;
52962;SDS011;38827;53.024;6.596;2023-09-08T13:27:41;3.67;;;3.20;;
52962;SDS011;38827;53.024;6.596;2023-09-08T13:30:37;4.22;;;2.75;;
52962;SDS011;38827;53.024;6.596;2023-09-08T13:33:05;3.80;;;3.00;;
52962;SDS011;38827;53.024;6.596;2023-09-08T13:40:31;3.20;;;2.45;;
52962;SDS011;38827;53.024;6.596;2023-09-08T13:42:58;3.85;;;2.90;;
52962;SDS011;38827;53.024;6.596;2023-09-08T13:45:24;5.20;;;3.00;;
52962;SDS011;38827;53.024;6.596;2023-09-08T13:47:50;4.20;;;3.10;;
52962;SDS011;38827;53.024;6.596;2023-09-08T13:50:15;6.13;;;3.00;;
52962;SDS011;38827;53.024;6.596;2023-09-08T13:52:41;4.22;;;2.72;;
52962;SDS011;38827;53.024;6.596;2023-09-08T13:55:08;3.58;;;3.25;;
52962;SDS011;38827;53.024;6.596;2023-09-08T13:57:35;6.40;;;3.00;;
52962;SDS011;38827;53.024;6.596;2023-09-08T14:00:01;3.72;;;3.10;;
52962;SDS011;38827;53.024;6.596;2023-09-08T14:02:28;3.95;;;3.13;;
52962;SDS011;38827;53.024;6.596;2023-09-08T14:04:53;4.50;;;2.67;;
52962;SDS011;38827;53.024;6.596;2023-09-08T14:07:37;6.80;;;2.88;;
52962;SDS011;38827;53.024;6.596;2023-09-08T14:10:06;5.38;;;2.92;;
52962;SDS011;38827;53.024;6.596;2023-09-08T14:12:33;3.72;;;2.95;;
52962;SDS011;38827;53.024;6.596;2023-09-08T14:14:59;3.50;;;2.80;;
52962;SDS011;38827;53.024;6.596;2023-09-08T14:17:24;3.65;;;3.17;;
52962;SDS011;38827;53.024;6.596;2023-09-08T14:34:20;7.28;;;2.92;;
52962;SDS011;38827;53.024;6.596;2023-09-08T14:36:49;3.50;;;3.20;;
52962;SDS011;38827;53.024;6.596;2023-09-08T14:39:21;5.63;;;2.92;;
52962;SDS011;38827;53.024;6.596;2023-09-08T14:41:59;4.22;;;2.90;;
52962;SDS011;38827;53.024;6.596;2023-09-08T14:44:40;4.05;;;3.00;;
52962;SDS011;38827;53.024;6.596;2023-09-08T14:47:19;3.67;;;2.83;;
52962;SDS011;38827;53.024;6.596;2023-09-08T14:49:45;4.78;;;3.00;;
52962;SDS011;38827;53.024;6.596;2023-09-08T14:52:25;3.42;;;2.97;;
52962;SDS011;38827;53.024;6.596;2023-09-08T14:55:24;4.65;;;3.30;;
52962;SDS011;38827;53.024;6.596;2023-09-08T14:57:50;4.00;;;3.13;;
52962;SDS011;38827;53.024;6.596;2023-09-08T15:00:16;4.85;;;3.28;;
52962;SDS011;38827;53.024;6.596;2023-09-08T15:07:53;3.80;;;2.72;;
52962;SDS011;38827;53.024;6.596;2023-09-08T15:10:31;3.45;;;3.13;;
52962;SDS011;38827;53.024;6.596;2023-09-08T15:13:01;5.97;;;3.17;;
52962;SDS011;38827;53.024;6.596;2023-09-08T15:15:29;3.83;;;3.30;;
52962;SDS011;38827;53.024;6.596;2023-09-08T15:17:55;3.63;;;3.10;;
52962;SDS011;38827;53.024;6.596;2023-09-08T15:23:14;4.97;;;2.95;;
52962;SDS011;38827;53.024;6.596;2023-09-08T15:28:44;6.32;;;3.05;;
52962;SDS011;38827;53.024;6.596;2023-09-08T15:31:10;5.55;;;3.25;;
52962;SDS011;38827;53.024;6.596;2023-09-08T15:42:18;8.68;;;3.45;;
52962;SDS011;38827;53.024;6.596;2023-09-08T15:44:45;4.70;;;3.22;;
52962;SDS011;38827;53.024;6.596;2023-09-08T15:52:54;5.03;;;3.42;;
52962;SDS011;38827;53.024;6.596;2023-09-08T15:55:27;5.05;;;3.50;;
52962;SDS011;38827;53.024;6.596;2023-09-08T15:58:32;9.43;;;4.00;;
52962;SDS011;38827;53.024;6.596;2023-09-08T16:01:04;4.97;;;3.33;;
52962;SDS011;38827;53.024;6.596;2023-09-08T16:03:41;6.60;;;3.60;;
52962;SDS011;38827;53.024;6.596;2023-09-08T16:06:09;5.85;;;3.67;;
52962;SDS011;38827;53.024;6.596;2023-09-08T16:11:10;5.85;;;3.78;;
52962;SDS011;38827;53.024;6.596;2023-09-08T16:16:40;6.88;;;4.07;;
52962;SDS011;38827;53.024;6.596;2023-09-08T16:19:21;4.87;;;3.77;;
52962;SDS011;38827;53.024;6.596;2023-09-08T16:21:59;4.95;;;3.65;;
52962;SDS011;38827;53.024;6.596;2023-09-08T16:24:37;6.07;;;3.70;;
52962;SDS011;38827;53.024;6.596;2023-09-08T16:27:03;9.40;;;4.28;;
52962;SDS011;38827;53.024;6.596;2023-09-08T16:29:28;5.35;;;4.07;;
52962;SDS011;38827;53.024;6.596;2023-09-08T16:31:54;6.17;;;3.87;;
52962;SDS011;38827;53.024;6.596;2023-09-08T16:39:39;7.20;;;3.92;;
52962;SDS011;38827;53.024;6.596;2023-09-08T16:42:13;5.20;;;3.67;;
52962;SDS011;38827;53.024;6.596;2023-09-08T16:51:49;6.63;;;3.72;;
52962;SDS011;38827;53.024;6.596;2023-09-08T16:54:33;4.43;;;3.97;;
52962;SDS011;38827;53.024;6.596;2023-09-08T16:57:14;5.32;;;3.80;;
52962;SDS011;38827;53.024;6.596;2023-09-08T16:59:43;5.65;;;3.83;;
52962;SDS011;38827;53.024;6.596;2023-09-08T17:02:18;6.90;;;3.90;;
52962;SDS011;38827;53.024;6.596;2023-09-08T17:04:43;5.07;;;3.97;;
52962;SDS011;38827;53.024;6.596;2023-09-08T17:07:20;4.50;;;3.80;;
52962;SDS011;38827;53.024;6.596;2023-09-08T17:09:58;8.37;;;4.00;;
52962;SDS011;38827;53.024;6.596;2023-09-08T17:12:24;7.20;;;4.15;;
52962;SDS011;38827;53.024;6.596;2023-09-08T17:20:57;6.03;;;4.07;;
52962;SDS011;38827;53.024;6.596;2023-09-08T17:23:38;6.78;;;4.40;;
52962;SDS011;38827;53.024;6.596;2023-09-08T17:26:04;6.65;;;4.32;;
52962;SDS011;38827;53.024;6.596;2023-09-08T17:28:42;7.63;;;4.27;;
52962;SDS011;38827;53.024;6.596;2023-09-08T17:34:01;7.18;;;3.85;;
52962;SDS011;38827;53.024;6.596;2023-09-08T17:36:27;6.15;;;4.10;;
52962;SDS011;38827;53.024;6.596;2023-09-08T17:38:53;7.73;;;4.10;;
52962;SDS011;38827;53.024;6.596;2023-09-08T17:41:28;5.50;;;3.97;;
52962;SDS011;38827;53.024;6.596;2023-09-08T17:44:05;6.97;;;4.15;;
52962;SDS011;38827;53.024;6.596;2023-09-08T17:46:30;5.63;;;4.25;;
52962;SDS011;38827;53.024;6.596;2023-09-08T17:48:58;7.57;;;4.53;;
52962;SDS011;38827;53.024;6.596;2023-09-08T17:51:24;6.80;;;4.10;;
52962;SDS011;38827;53.024;6.596;2023-09-08T18:00:48;5.60;;;4.15;;
52962;SDS011;38827;53.024;6.596;2023-09-08T18:06:13;5.95;;;4.72;;
52962;SDS011;38827;53.024;6.596;2023-09-08T18:08:39;5.00;;;4.50;;
52962;SDS011;38827;53.024;6.596;2023-09-08T18:11:08;6.05;;;4.60;;
52962;SDS011;38827;53.024;6.596;2023-09-08T18:13:33;9.87;;;5.30;;
52962;SDS011;38827;53.024;6.596;2023-09-08T18:16:17;14.20;;;4.90;;
52962;SDS011;38827;53.024;6.596;2023-09-08T18:18:44;6.10;;;4.68;;
52962;SDS011;38827;53.024;6.596;2023-09-08T18:21:10;7.00;;;4.43;;
52962;SDS011;38827;53.024;6.596;2023-09-08T18:23:49;7.95;;;4.70;;
52962;SDS011;38827;53.024;6.596;2023-09-08T18:26:20;5.35;;;4.85;;
52962;SDS011;38827;53.024;6.596;2023-09-08T18:28:48;5.50;;;4.28;;
52962;SDS011;38827;53.024;6.596;2023-09-08T18:31:24;6.43;;;4.10;;
52962;SDS011;38827;53.024;6.596;2023-09-08T18:36:23;9.02;;;4.70;;
52962;SDS011;38827;53.024;6.596;2023-09-08T18:46:19;5.85;;;4.63;;
52962;SDS011;38827;53.024;6.596;2023-09-08T18:49:06;6.60;;;5.10;;
52962;SDS011;38827;53.024;6.596;2023-09-08T18:51:41;7.90;;;4.95;;
52962;SDS011;38827;53.024;6.596;2023-09-08T18:54:07;6.15;;;4.45;;
52962;SDS011;38827;53.024;6.596;2023-09-08T18:56:32;7.07;;;5.00;;
52962;SDS011;38827;53.024;6.596;2023-09-08T18:58:58;6.17;;;5.00;;
52962;SDS011;38827;53.024;6.596;2023-09-08T19:12:08;9.82;;;5.00;;
52962;SDS011;38827;53.024;6.596;2023-09-08T19:14:42;6.53;;;5.32;;
52962;SDS011;38827;53.024;6.596;2023-09-08T19:17:08;6.20;;;5.43;;
52962;SDS011;38827;53.024;6.596;2023-09-08T19:19:34;8.20;;;5.33;;
52962;SDS011;38827;53.024;6.596;2023-09-08T19:21:59;6.20;;;5.60;;
52962;SDS011;38827;53.024;6.596;2023-09-08T19:24:25;7.00;;;5.13;;
52962;SDS011;38827;53.024;6.596;2023-09-08T19:29:33;8.25;;;5.35;;
52962;SDS011;38827;53.024;6.596;2023-09-08T19:32:02;10.85;;;5.35;;
52962;SDS011;38827;53.024;6.596;2023-09-08T19:34:27;8.48;;;5.20;;
52962;SDS011;38827;53.024;6.596;2023-09-08T19:36:53;9.03;;;5.43;;
52962;SDS011;38827;53.024;6.596;2023-09-08T19:39:19;8.23;;;5.07;;
52962;SDS011;38827;53.024;6.596;2023-09-08T19:41:48;11.90;;;5.13;;
52962;SDS011;38827;53.024;6.596;2023-09-08T19:44:13;8.97;;;5.80;;
52962;SDS011;38827;53.024;6.596;2023-09-08T19:46:39;10.77;;;5.80;;
52962;SDS011;38827;53.024;6.596;2023-09-08T19:49:05;11.87;;;5.57;;
52962;SDS011;38827;53.024;6.596;2023-09-08T19:51:31;12.73;;;6.03;;
52962;SDS011;38827;53.024;6.596;2023-09-08T19:53:56;13.23;;;5.63;;
52962;SDS011;38827;53.024;6.596;2023-09-08T19:56:22;8.30;;;5.60;;
52962;SDS011;38827;53.024;6.596;2023-09-08T19:58:48;7.67;;;6.13;;
52962;SDS011;38827;53.024;6.596;2023-09-08T20:04:40;10.90;;;6.55;;
52962;SDS011;38827;53.024;6.596;2023-09-08T20:11:09;9.68;;;5.90;;
52962;SDS011;38827;53.024;6.596;2023-09-08T20:20:25;9.20;;;5.93;;
52962;SDS011;38827;53.024;6.596;2023-09-08T20:22:59;10.20;;;6.33;;
52962;SDS011;38827;53.024;6.596;2023-09-08T20:25:28;7.72;;;6.50;;
52962;SDS011;38827;53.024;6.596;2023-09-08T20:27:59;8.77;;;6.47;;
52962;SDS011;38827;53.024;6.596;2023-09-08T20:30:40;10.95;;;6.65;;
52962;SDS011;38827;53.024;6.596;2023-09-08T20:33:17;9.63;;;6.53;;
52962;SDS011;38827;53.024;6.596;2023-09-08T20:35:58;9.95;;;6.55;;
52962;SDS011;38827;53.024;6.596;2023-09-08T20:38:26;9.88;;;6.75;;
52962;SDS011;38827;53.024;6.596;2023-09-08T20:41:09;7.93;;;6.40;;
52962;SDS011;38827;53.024;6.596;2023-09-08T20:43:35;12.75;;;6.53;;
52962;SDS011;38827;53.024;6.596;2023-09-08T20:46:01;9.40;;;6.60;;
52962;SDS011;38827;53.024;6.596;2023-09-08T20:48:31;10.18;;;7.03;;
52962;SDS011;38827;53.024;6.596;2023-09-08T20:51:08;9.48;;;7.18;;
52962;SDS011;38827;53.024;6.596;2023-09-08T20:53:37;7.28;;;6.40;;
52962;SDS011;38827;53.024;6.596;2023-09-08T20:56:04;7.90;;;6.38;;
52962;SDS011;38827;53.024;6.596;2023-09-08T20:58:32;8.90;;;6.15;;
52962;SDS011;38827;53.024;6.596;2023-09-08T21:00:59;6.35;;;5.70;;
52962;SDS011;38827;53.024;6.596;2023-09-08T21:03:29;7.57;;;6.00;;
52962;SDS011;38827;53.024;6.596;2023-09-08T21:05:55;6.97;;;5.83;;
52962;SDS011;38827;53.024;6.596;2023-09-08T21:08:21;10.30;;;5.60;;
52962;SDS011;38827;53.024;6.596;2023-09-08T21:10:47;9.30;;;5.83;;
52962;SDS011;38827;53.024;6.596;2023-09-08T21:13:16;9.80;;;6.50;;
52962;SDS011;38827;53.024;6.596;2023-09-08T21:15:41;8.67;;;6.00;;